Time;durP1;ratioP1;P1;durP2;ratioP2;P2;SDS_P1;SDS_P2;PMS_P1;PMS_P2;Temp;Humidity;BMP_temperature;BMP_pressure;BME280_temperature;BME280_humidity;BME280_pressure;Samples;Min_cycle;Max_cycle;Signal;HPM_P1;HPM_P2
2022/04/03 00:00:23;;;;;;;;;;;;;;;21.01;32.82;102371.16;7280642;19;153615;-57
2022/04/03 00:02:50;;;;;;;;;;;;;;;20.98;32.96;102380.16;7279987;19;153285;-58
2022/04/03 00:05:18;;;;;;;;;;;;;;;20.99;32.82;102379.00;7280836;19;152012;-59
2022/04/03 00:07:49;;;;;;;;;;;;;;;21.00;33.24;102383.50;7278333;19;153381;-59
2022/04/03 00:10:16;;;;;;;;;;;;;;;20.96;33.23;102379.56;7278902;19;153236;-58
2022/04/03 00:12:46;;;;;;;;;;;;;;;20.96;33.11;102379.56;7280396;19;152549;-58
2022/04/03 00:15:15;;;;;;;;;;;;;;;20.90;33.43;102377.84;7281849;19;152579;-58
2022/04/03 00:17:43;;;;;;;;;;;;;;;20.87;33.36;102373.66;7279389;19;152247;-57
2022/04/03 00:20:10;;;;;;;;;;;;;;;20.84;33.17;102377.03;7278678;19;152665;-59
2022/04/03 00:22:37;;;;;;;;;;;;;;;20.81;33.69;102378.41;7279347;19;153893;-58
2022/04/03 00:25:04;;;;;;;;;;;;;;;20.79;33.35;102383.47;7280517;19;151711;-60
2022/04/03 00:27:31;;;;;;;;;;;;;;;20.76;33.65;102375.56;7277765;19;152788;-59
2022/04/03 00:29:57;;;;;;;;;;;;;;;20.72;33.78;102374.44;7279613;19;153320;-59
2022/04/03 00:32:24;;;;;;;;;;;;;;;20.68;34.13;102375.25;7280431;19;151889;-60
2022/04/03 00:34:51;;;;;;;;;;;;;;;20.66;34.10;102378.34;7280740;19;154020;-59
2022/04/03 00:37:17;;;;;;;;;;;;;;;20.63;34.15;102367.66;7284782;19;152222;-59
2022/04/03 00:39:44;;;;;;;;;;;;;;;20.62;33.93;102380.03;7279606;19;152702;-59
2022/04/03 00:42:11;;;;;;;;;;;;;;;20.60;33.96;102379.44;7277064;19;154104;-60
2022/04/03 00:44:38;;;;;;;;;;;;;;;20.58;34.31;102373.25;7277737;19;152025;-61
2022/04/03 00:47:04;;;;;;;;;;;;;;;20.55;34.13;102376.63;7278189;19;153302;-59
2022/04/03 00:49:32;;;;;;;;;;;;;;;20.52;34.94;102374.38;7278842;19;153320;-59
2022/04/03 00:51:58;;;;;;;;;;;;;;;20.50;34.76;102365.34;7280176;19;151835;-59
2022/04/03 00:54:25;;;;;;;;;;;;;;;20.51;34.97;102375.47;7277699;19;153224;-58
2022/04/03 00:56:53;;;;;;;;;;;;;;;20.50;34.74;102375.72;7281682;19;154117;-59
2022/04/03 00:59:19;;;;;;;;;;;;;;;20.49;34.99;102371.25;7277980;19;153273;-59
2022/04/03 01:01:46;;;;;;;;;;;;;;;20.42;34.74;102377.13;7278165;19;154161;-59
2022/04/03 01:04:13;;;;;;;;;;;;;;;20.42;35.02;102374.31;7279925;19;152084;-58
2022/04/03 01:06:40;;;;;;;;;;;;;;;20.37;34.96;102377.09;7278284;19;152686;-59
2022/04/03 01:09:07;;;;;;;;;;;;;;;20.33;35.19;102373.97;7278970;19;153468;-59
2022/04/03 01:11:34;;;;;;;;;;;;;;;20.34;35.06;102380.44;7278332;19;152242;-59
2022/04/03 01:14:01;;;;;;;;;;;;;;;20.33;35.34;102373.13;7277845;19;152621;-58
2022/04/03 01:16:28;;;;;;;;;;;;;;;20.30;35.08;102380.16;7275683;19;154113;-59
2022/04/03 01:18:54;;;;;;;;;;;;;;;20.27;35.18;102382.59;7286558;19;152100;-59
2022/04/03 01:21:21;;;;;;;;;;;;;;;20.24;35.30;102383.16;7278547;19;153249;-58
2022/04/03 01:23:48;;;;;;;;;;;;;;;20.21;35.47;102383.72;7279099;19;152110;-59
2022/04/03 01:26:15;;;;;;;;;;;;;;;20.21;35.71;102378.09;7277464;19;153290;-59
2022/04/03 01:28:42;;;;;;;;;;;;;;;20.19;35.81;102372.75;7275866;19;154207;-59
2022/04/03 01:31:09;;;;;;;;;;;;;;;20.21;35.96;102376.13;7277150;19;151971;-59
2022/04/03 01:33:36;;;;;;;;;;;;;;;20.18;35.85;102378.63;7279001;19;153907;-59
2022/04/03 01:36:03;;;;;;;;;;;;;;;20.17;36.26;102377.75;7277382;19;154591;-60
2022/04/03 01:38:29;;;;;;;;;;;;;;;20.16;35.97;102384.53;7278422;19;151832;-59
2022/04/03 01:40:56;;;;;;;;;;;;;;;20.14;36.43;102375.50;7285532;19;152941;-60
2022/04/03 01:43:23;;;;;;;;;;;;;;;20.12;36.41;102379.72;7279573;19;152442;-60
2022/04/03 01:45:53;;;;;;;;;;;;;;;20.06;36.28;102375.19;7278315;19;152566;-60
2022/04/03 01:48:20;;;;;;;;;;;;;;;20.07;36.30;102388.09;7276757;19;153932;-61
2022/04/03 01:50:48;;;;;;;;;;;;;;;20.05;36.52;102379.94;7275742;19;151912;-60
2022/04/03 01:53:15;;;;;;;;;;;;;;;20.02;36.31;102390.88;7273696;19;153597;-59
2022/04/03 01:55:43;;;;;;;;;;;;;;;19.96;36.57;102385.22;7274047;19;153642;-60
2022/04/03 01:58:15;;;;;;;;;;;;;;;19.94;36.61;102375.41;7273757;19;151980;-60
2022/04/03 02:00:42;;;;;;;;;;;;;;;19.92;36.23;102372.00;7274570;19;152756;-60
2022/04/03 02:03:09;;;;;;;;;;;;;;;19.89;36.64;102372.56;7281915;19;154049;-60
2022/04/03 02:05:36;;;;;;;;;;;;;;;19.87;36.35;102371.97;7277395;19;152354;-60
2022/04/03 02:08:03;;;;;;;;;;;;;;;19.84;36.68;102373.34;7271376;19;153686;-59
2022/04/03 02:10:30;;;;;;;;;;;;;;;19.86;36.71;102378.69;7277359;19;152788;-60
2022/04/03 02:12:56;;;;;;;;;;;;;;;19.84;36.56;102373.34;7277378;19;153441;-60
2022/04/03 02:15:23;;;;;;;;;;;;;;;19.82;36.39;102375.56;7276264;19;153790;-59
2022/04/03 02:17:50;;;;;;;;;;;;;;;19.80;36.44;102376.97;7277782;19;151510;-60
2022/04/03 02:20:17;;;;;;;;;;;;;;;19.82;36.35;102377.53;7274612;19;153347;-59
2022/04/03 02:22:43;;;;;;;;;;;;;;;19.75;36.58;102374.97;7275379;19;153930;-58
2022/04/03 02:25:11;;;;;;;;;;;;;;;19.75;36.82;102377.78;7283576;19;151652;-58
2022/04/03 02:27:38;;;;;;;;;;;;;;;19.75;36.62;102379.72;7274005;19;154284;-58
2022/04/03 02:30:08;;;;;;;;;;;;;;;19.71;36.52;102378.56;7276063;19;151656;-58
2022/04/03 02:32:39;;;;;;;;;;;;;;;19.71;36.57;102373.81;7275544;19;152676;-58
2022/04/03 02:35:06;;;;;;;;;;;;;;;19.67;36.64;102375.44;7274467;19;153932;-58
2022/04/03 02:37:33;;;;;;;;;;;;;;;19.66;37.00;102370.97;7277666;19;151882;-58
2022/04/03 02:40:00;;;;;;;;;;;;;;;19.65;36.96;102377.69;7276401;19;153173;-58
2022/04/03 02:42:27;;;;;;;;;;;;;;;19.65;37.08;102374.88;7275637;19;154252;-58
2022/04/03 02:44:54;;;;;;;;;;;;;;;19.60;36.85;102369.22;7283374;19;152035;-58
2022/04/03 02:47:22;;;;;;;;;;;;;;;19.57;36.88;102369.78;7274048;19;153324;-58
2022/04/03 02:49:52;;;;;;;;;;;;;;;19.57;37.19;102372.56;7274162;19;151886;-58
2022/04/03 02:52:19;;;;;;;;;;;;;;;19.57;36.82;102364.16;7274696;19;152571;-58
2022/04/03 02:54:47;;;;;;;;;;;;;;;19.54;36.90;102370.28;7274934;19;154347;-58
2022/04/03 02:57:17;;;;;;;;;;;;;;;19.53;36.76;102363.00;7272415;19;151962;-59
2022/04/03 02:59:44;;;;;;;;;;;;;;;19.52;37.06;102358.50;7272376;19;153588;-60
2022/04/03 03:02:11;;;;;;;;;;;;;;;19.49;37.00;102357.06;7274107;19;153748;-60
2022/04/03 03:04:38;;;;;;;;;;;;;;;19.46;36.79;102357.63;7276558;19;153079;-59
2022/04/03 03:07:05;;;;;;;;;;;;;;;19.42;36.96;102358.38;7288258;19;152739;-58
2022/04/03 03:09:32;;;;;;;;;;;;;;;19.37;37.18;102369.53;7282994;19;151626;-58
2022/04/03 03:11:59;;;;;;;;;;;;;;;19.30;37.45;102358.56;7282391;19;152906;-59
2022/04/03 03:14:27;;;;;;;;;;;;;;;19.32;37.24;102359.13;7279955;19;153186;-60
2022/04/03 03:16:54;;;;;;;;;;;;;;;19.26;37.29;102362.16;7282508;19;151877;-58
2022/04/03 03:19:22;;;;;;;;;;;;;;;19.23;37.68;102365.47;7280625;19;153349;-59
2022/04/03 03:21:48;;;;;;;;;;;;;;;19.18;37.51;102363.47;7281379;19;152444;-58
2022/04/03 03:24:15;;;;;;;;;;;;;;;19.18;37.59;102360.66;7282331;19;151683;-58
2022/04/03 03:26:42;;;;;;;;;;;;;;;19.13;37.48;102357.81;7282196;19;153774;-58
2022/04/03 03:29:09;;;;;;;;;;;;;;;19.14;37.48;102356.72;7285938;19;154187;-58
2022/04/03 03:31:35;;;;;;;;;;;;;;;19.12;37.75;102358.94;7280364;19;152645;-58
2022/04/03 03:34:02;;;;;;;;;;;;;;;19.09;37.48;102357.50;7280360;19;154530;-58
2022/04/03 03:36:29;;;;;;;;;;;;;;;19.12;37.59;102358.94;7282659;19;151826;-58
2022/04/03 03:38:56;;;;;;;;;;;;;;;19.05;37.71;102364.75;7281113;19;153259;-59
2022/04/03 03:41:23;;;;;;;;;;;;;;;19.04;37.45;102356.59;7277761;19;153458;-58
2022/04/03 03:43:50;;;;;;;;;;;;;;;19.01;37.68;102360.78;7278902;19;151984;-57
2022/04/03 03:46:17;;;;;;;;;;;;;;;18.98;37.66;102360.47;7281817;19;152966;-58
2022/04/03 03:48:43;;;;;;;;;;;;;;;18.94;37.55;102364.91;7278183;19;153427;-58
2022/04/03 03:51:10;;;;;;;;;;;;;;;18.93;37.84;102366.00;7288496;19;152162;-58
2022/04/03 03:53:37;;;;;;;;;;;;;;;18.91;37.89;102365.41;7278596;19;152268;-58
2022/04/03 03:56:05;;;;;;;;;;;;;;;18.88;37.64;102371.56;7278126;19;152087;-58
2022/04/03 03:58:31;;;;;;;;;;;;;;;18.87;37.58;102369.84;7277502;19;153749;-58
2022/04/03 04:00:58;;;;;;;;;;;;;;;18.84;37.68;102368.44;7277715;19;152497;-58
2022/04/03 04:03:25;;;;;;;;;;;;;;;18.85;37.86;102367.31;7280701;19;151850;-58
2022/04/03 04:05:52;;;;;;;;;;;;;;;18.83;38.06;102369.53;7281142;19;152523;-59
2022/04/03 04:08:19;;;;;;;;;;;;;;;18.84;37.91;102371.25;7278829;19;153232;-58
2022/04/03 04:10:46;;;;;;;;;;;;;;;18.80;37.61;102375.69;7278411;19;152218;-58
2022/04/03 04:13:13;;;;;;;;;;;;;;;18.78;37.62;102368.63;7286739;19;154007;-59
2022/04/03 04:15:39;;;;;;;;;;;;;;;18.76;37.72;102368.06;7278625;19;152171;-59
2022/04/03 04:18:06;;;;;;;;;;;;;;;18.77;37.99;102370.59;7279279;19;152767;-58
2022/04/03 04:20:33;;;;;;;;;;;;;;;18.75;37.71;102372.81;7276754;19;154221;-61
2022/04/03 04:22:59;;;;;;;;;;;;;;;18.70;37.76;102372.75;7281400;19;152191;-60
2022/04/03 04:25:26;;;;;;;;;;;;;;;18.71;37.86;102368.00;7280304;19;152382;-66
2022/04/03 04:27:53;;;;;;;;;;;;;;;18.67;37.62;102376.06;7278388;19;153648;-59
2022/04/03 04:30:20;;;;;;;;;;;;;;;18.67;37.66;102367.66;7281166;19;152030;-60
2022/04/03 04:32:47;;;;;;;;;;;;;;;18.69;37.82;102371.06;7277905;19;152816;-58
2022/04/03 04:35:14;;;;;;;;;;;;;;;18.69;37.74;102370.19;7284433;19;154272;-58
2022/04/03 04:37:41;;;;;;;;;;;;;;;18.62;38.15;102368.44;7279798;19;153261;-57
2022/04/03 04:40:09;;;;;;;;;;;;;;;18.60;38.08;102364.22;7278975;19;152085;-57
2022/04/03 04:42:39;;;;;;;;;;;;;;;18.58;37.86;102366.41;7279332;19;151894;-58
2022/04/03 04:45:14;;;;;;;;;;;;;;;18.58;38.10;102361.66;7280247;19;153606;-58
2022/04/03 04:47:43;;;;;;;;;;;;;;;18.57;38.19;102370.34;7277478;19;153268;-57
2022/04/03 04:50:11;;;;;;;;;;;;;;;18.53;38.01;102369.19;7280066;19;152043;-58
2022/04/03 04:52:39;;;;;;;;;;;;;;;18.51;37.84;102368.53;7278010;19;153045;-57
2022/04/03 04:55:06;;;;;;;;;;;;;;;18.50;38.32;102373.28;7284633;19;152895;-57
2022/04/03 04:57:33;;;;;;;;;;;;;;;18.49;38.29;102365.16;7278675;19;152687;-57
2022/04/03 05:00:00;;;;;;;;;;;;;;;18.47;37.91;102365.44;7274500;19;152326;-57
2022/04/03 05:02:29;;;;;;;;;;;;;;;18.46;38.17;102371.28;7280245;19;151932;-57
2022/04/03 05:04:58;;;;;;;;;;;;;;;18.44;38.25;102373.50;7277990;19;152067;-57
2022/04/03 05:07:25;;;;;;;;;;;;;;;18.44;38.21;102377.13;7276594;19;152490;-57
2022/04/03 05:09:52;;;;;;;;;;;;;;;18.52;38.49;102376.69;7277419;19;151826;-57
2022/04/03 05:12:20;;;;;;;;;;;;;;;18.55;38.37;102372.53;7279717;19;153979;-57
2022/04/03 05:14:47;;;;;;;;;;;;;;;18.60;38.54;102375.41;7275305;19;154562;-57
2022/04/03 05:17:14;;;;;;;;;;;;;;;18.65;38.97;102386.69;7287804;19;152170;-58
2022/04/03 05:19:41;;;;;;;;;;;;;;;18.72;39.54;102384.50;7277180;19;154033;-58
2022/04/03 05:22:11;;;;;;;;;;;;;;;18.81;39.84;102391.34;7273906;19;151779;-58
2022/04/03 05:24:37;;;;;;;;;;;;;;;18.87;39.33;102376.31;7276966;19;153993;-58
2022/04/03 05:27:05;;;;;;;;;;;;;;;18.94;39.72;102382.53;7278367;19;153524;-58
2022/04/03 05:29:34;;;;;;;;;;;;;;;19.01;39.58;102385.16;7278174;19;152108;-60
2022/04/03 05:32:01;;;;;;;;;;;;;;;19.08;39.59;102386.63;7279397;19;152868;-58
2022/04/03 05:34:28;;;;;;;;;;;;;;;19.14;39.96;102384.72;7277144;19;153273;-57
2022/04/03 05:36:55;;;;;;;;;;;;;;;19.24;39.81;102389.59;7279082;19;151653;-57
2022/04/03 05:39:21;;;;;;;;;;;;;;;19.31;39.46;102390.22;7284674;19;153303;-57
2022/04/03 05:41:53;;;;;;;;;;;;;;;19.38;40.00;102397.31;7278708;19;152039;-57
2022/04/03 05:44:20;;;;;;;;;;;;;;;19.47;39.88;102403.31;7278116;19;153776;-58
2022/04/03 05:46:47;;;;;;;;;;;;;;;19.53;39.94;102396.66;7276662;19;153657;-57
2022/04/03 05:49:14;;;;;;;;;;;;;;;19.60;39.86;102402.88;7275374;19;151795;-58
2022/04/03 05:51:41;;;;;;;;;;;;;;;19.67;39.69;102403.47;7278486;19;152649;-59
2022/04/03 05:54:08;;;;;;;;;;;;;;;19.76;39.50;102401.06;7276409;19;153826;-58
2022/04/03 05:56:34;;;;;;;;;;;;;;;19.81;38.95;102403.88;7278177;19;151899;-58
2022/04/03 05:59:01;;;;;;;;;;;;;;;19.88;39.15;102404.50;7277263;19;152984;-58
2022/04/03 06:01:28;;;;;;;;;;;;;;;19.95;38.63;102405.13;7280278;19;154279;-58
2022/04/03 06:03:56;;;;;;;;;;;;;;;20.00;38.94;102405.16;7278381;19;155336;-57
2022/04/03 06:06:23;;;;;;;;;;;;;;;20.06;38.42;102409.69;7275674;19;153233;-58
2022/04/03 06:08:50;;;;;;;;;;;;;;;20.12;38.75;102417.06;7274480;19;151763;-57
2022/04/03 06:11:18;;;;;;;;;;;;;;;20.18;38.85;102415.94;7276935;19;152532;-58
2022/04/03 06:13:47;;;;;;;;;;;;;;;20.23;37.98;102410.38;7273894;19;153659;-58
2022/04/03 06:16:14;;;;;;;;;;;;;;;20.29;37.73;102416.88;7277680;19;152052;-59
2022/04/03 06:18:41;;;;;;;;;;;;;;;20.34;37.53;102416.94;7277560;19;153458;-60
2022/04/03 06:21:08;;;;;;;;;;;;;;;20.37;37.45;102417.22;7276406;19;155783;-59
2022/04/03 06:23:35;;;;;;;;;;;;;;;20.42;37.38;102422.88;7284382;19;151754;-59
2022/04/03 06:26:03;;;;;;;;;;;;;;;20.48;37.13;102420.09;7275287;19;156831;-59
2022/04/03 06:28:29;;;;;;;;;;;;;;;20.53;37.34;102426.59;7276075;19;151838;-58
2022/04/03 06:30:57;;;;;;;;;;;;;;;20.57;36.80;102424.09;7275827;19;153144;-58
2022/04/03 06:33:24;;;;;;;;;;;;;;;20.62;36.91;102418.50;7275515;19;153977;-57
2022/04/03 06:35:51;;;;;;;;;;;;;;;20.67;37.31;102430.56;7277509;19;151948;-58
2022/04/03 06:38:17;;;;;;;;;;;;;;;20.71;37.17;102422.47;7277814;19;152538;-58
2022/04/03 06:40:49;;;;;;;;;;;;;;;20.76;36.86;102425.28;7278658;19;154098;-57
2022/04/03 06:43:17;;;;;;;;;;;;;;;20.80;37.05;102420.84;7281568;19;152343;-58
2022/04/03 06:45:44;;;;;;;;;;;;;;;20.84;37.29;102424.78;7286848;19;154464;-58
2022/04/03 06:48:11;;;;;;;;;;;;;;;20.87;36.99;102429.84;7282893;19;151662;-58
2022/04/03 06:50:37;;;;;;;;;;;;;;;20.92;36.96;102432.66;7282483;19;153655;-58
2022/04/03 06:53:04;;;;;;;;;;;;;;;20.97;36.85;102435.50;7282460;19;154369;-58
2022/04/03 06:55:31;;;;;;;;;;;;;;;21.00;36.77;102437.75;7283043;19;151986;-58
2022/04/03 06:57:57;;;;;;;;;;;;;;;21.04;36.41;102440.84;7284350;19;152664;-58
2022/04/03 07:00:24;;;;;;;;;;;;;;;21.07;36.61;102441.16;7281024;19;153737;-60
2022/04/03 07:02:51;;;;;;;;;;;;;;;21.11;36.49;102438.63;7279312;19;152384;-58
2022/04/03 07:05:18;;;;;;;;;;;;;;;21.15;36.23;102442.63;7287330;19;153223;-58
2022/04/03 07:07:45;;;;;;;;;;;;;;;21.18;36.58;102436.44;7282428;19;151746;-58
2022/04/03 07:10:13;;;;;;;;;;;;;;;21.20;36.58;102445.44;7283565;19;152672;-58
2022/04/03 07:12:39;;;;;;;;;;;;;;;21.21;36.14;102445.16;7280805;19;153977;-58
2022/04/03 07:15:12;;;;;;;;;;;;;;;21.23;36.72;102450.50;7280103;19;151835;-58
2022/04/03 07:17:43;;;;;;;;;;;;;;;21.25;36.48;102442.66;7281966;19;152752;-57
2022/04/03 07:20:13;;;;;;;;;;;;;;;21.25;36.19;102442.66;7280384;19;153898;-58
2022/04/03 07:22:41;;;;;;;;;;;;;;;21.27;36.22;102440.41;7281821;19;152237;-59
2022/04/03 07:25:08;;;;;;;;;;;;;;;21.27;36.26;102446.88;7280209;19;153353;-59
2022/04/03 07:27:35;;;;;;;;;;;;;;;21.28;36.68;102442.94;7288740;19;154517;-58
2022/04/03 07:30:03;;;;;;;;;;;;;;;21.29;36.32;102446.59;7280375;19;153394;-59
2022/04/03 07:32:39;;;;;;;;;;;;;;;21.28;36.58;102444.91;7279007;19;154007;-58
2022/04/03 07:35:06;;;;;;;;;;;;;;;21.29;36.61;102444.63;7279907;19;151910;-58
2022/04/03 07:37:33;;;;;;;;;;;;;;;21.28;36.14;102453.34;7282410;19;152931;-58
2022/04/03 07:40:00;;;;;;;;;;;;;;;21.27;36.43;102454.44;7280210;19;154463;-60
2022/04/03 07:42:28;;;;;;;;;;;;;;;21.26;36.38;102450.78;7281488;19;151909;-59
2022/04/03 07:45:02;;;;;;;;;;;;;;;21.26;36.23;102449.94;7278948;19;152532;-59
2022/04/03 07:47:29;;;;;;;;;;;;;;;21.27;36.18;102448.81;7281002;19;155453;-58
2022/04/03 07:49:55;;;;;;;;;;;;;;;21.26;36.57;102447.97;7286659;19;152066;-61
2022/04/03 07:52:22;;;;;;;;;;;;;;;21.30;36.47;102445.47;7276152;19;153239;-59
2022/04/03 07:54:49;;;;;;;;;;;;;;;21.27;35.91;102449.69;7280296;19;152112;-57
2022/04/03 07:57:19;;;;;;;;;;;;;;;21.19;35.60;102449.38;7282234;19;153410;-57
2022/04/03 07:59:46;;;;;;;;;;;;;;;21.13;34.70;102440.06;7277839;19;154035;-57
2022/04/03 08:02:13;;;;;;;;;;;;;;;21.11;34.45;102438.63;7279563;19;151918;-56
2022/04/03 08:04:40;;;;;;;;;;;;;;;21.09;34.55;102436.09;7279065;19;153935;-57
2022/04/03 08:07:06;;;;;;;;;;;;;;;21.08;34.33;102437.22;7279812;19;154731;-58
2022/04/03 08:09:33;;;;;;;;;;;;;;;21.09;33.96;102438.06;7280256;19;152903;-57
2022/04/03 08:12:00;;;;;;;;;;;;;;;21.09;33.82;102443.69;7288617;19;153601;-58
2022/04/03 08:14:27;;;;;;;;;;;;;;;21.09;33.86;102444.53;7278472;19;152262;-57
2022/04/03 08:16:55;;;;;;;;;;;;;;;21.11;33.65;102449.88;7281711;19;152667;-57
2022/04/03 08:19:32;;;;;;;;;;;;;;;21.12;33.56;102445.97;7279374;19;154764;-57
2022/04/03 08:22:00;;;;;;;;;;;;;;;21.10;33.58;102442.56;7281802;19;152005;-57
2022/04/03 08:24:27;;;;;;;;;;;;;;;21.11;34.03;102452.69;7279264;19;152279;-59
2022/04/03 08:26:53;;;;;;;;;;;;;;;20.95;31.87;102443.34;7281075;19;154147;-59
2022/04/03 08:29:20;;;;;;;;;;;;;;;20.98;32.08;102442.81;7277427;19;151931;-59
2022/04/03 08:31:47;;;;;;;;;;;;;;;21.01;32.37;102447.03;7281824;19;154157;-59
2022/04/03 08:34:14;;;;;;;;;;;;;;;21.05;31.98;102442.53;7285776;19;155570;-57
2022/04/03 08:37:00;;;;;;;;;;;;;;;21.08;32.25;102448.44;7280582;19;155645;-57
2022/04/03 08:39:27;;;;;;;;;;;;;;;21.12;32.54;102445.97;7279902;19;153601;-57
2022/04/03 08:41:55;;;;;;;;;;;;;;;21.11;32.27;102447.06;7278082;19;152013;-57
2022/04/03 08:44:23;;;;;;;;;;;;;;;21.13;32.16;102448.50;7280989;19;152752;-57
2022/04/03 08:46:50;;;;;;;;;;;;;;;21.18;32.41;102451.34;7278539;19;153720;-57
2022/04/03 08:49:17;;;;;;;;;;;;;;;21.22;32.06;102444.03;7274085;19;152050;-57
2022/04/03 08:51:44;;;;;;;;;;;;;;;21.22;32.27;102444.03;7277522;19;153365;-57
2022/04/03 08:54:11;;;;;;;;;;;;;;;21.29;32.46;102440.97;7276310;19;154184;-57
2022/04/03 08:56:38;;;;;;;;;;;;;;;21.31;31.75;102449.97;7280669;19;151653;-57
2022/04/03 08:59:05;;;;;;;;;;;;;;;21.30;32.17;102453.91;7275639;19;154090;-57
2022/04/03 09:01:32;;;;;;;;;;;;;;;21.33;31.93;102442.09;7277123;19;151941;-57
2022/04/03 09:04:00;;;;;;;;;;;;;;;21.35;32.28;102442.66;7272788;19;153216;-58
2022/04/03 09:06:27;;;;;;;;;;;;;;;21.36;31.87;102443.50;7274473;19;154218;-58
2022/04/03 09:08:54;;;;;;;;;;;;;;;21.39;32.21;102435.38;7275717;19;151571;-58
2022/04/03 09:11:21;;;;;;;;;;;;;;;21.41;31.89;102435.09;7277175;19;153302;-58
2022/04/03 09:13:47;;;;;;;;;;;;;;;21.45;32.38;102437.06;7274809;19;152607;-58
2022/04/03 09:16:15;;;;;;;;;;;;;;;21.49;32.06;102442.97;7281768;19;152149;-57
2022/04/03 09:18:49;;;;;;;;;;;;;;;21.53;32.15;102432.88;7273323;19;153690;-57
2022/04/03 09:21:21;;;;;;;;;;;;;;;21.56;32.03;102433.16;7274512;19;151943;-58
2022/04/03 09:24:07;;;;;;;;;;;;;;;21.60;32.00;102434.28;7278151;19;152660;-57
2022/04/03 09:26:35;;;;;;;;;;;;;;;21.63;32.04;102432.88;7276282;19;154356;-57
2022/04/03 09:29:19;;;;;;;;;;;;;;;21.67;32.28;102431.19;7276857;19;152305;-58
2022/04/03 09:31:47;;;;;;;;;;;;;;;21.72;31.59;102437.66;7276665;19;153997;-57
2022/04/03 09:34:16;;;;;;;;;;;;;;;21.74;31.84;102429.78;7273610;19;154087;-57
2022/04/03 09:36:53;;;;;;;;;;;;;;;21.76;31.65;102429.50;7274202;19;152040;-56
2022/04/03 09:39:24;;;;;;;;;;;;;;;21.81;31.42;102423.88;7275051;19;152916;-56
2022/04/03 09:41:59;;;;;;;;;;;;;;;21.85;31.88;102427.00;7272797;19;152323;-56
2022/04/03 09:44:28;;;;;;;;;;;;;;;21.89;31.38;102417.69;7276207;19;153586;-56
2022/04/03 09:47:14;;;;;;;;;;;;;;;21.95;31.21;102421.38;7276587;19;155082;-56
2022/04/03 09:49:42;;;;;;;;;;;;;;;21.97;31.23;102417.16;7274959;19;151847;-57
2022/04/03 09:52:09;;;;;;;;;;;;;;;22.02;31.39;102414.34;7273665;19;153707;-57
2022/04/03 09:54:39;;;;;;;;;;;;;;;22.07;31.27;102413.50;7272391;19;156517;-56
2022/04/03 09:57:19;;;;;;;;;;;;;;;22.11;31.49;102417.44;7274032;19;152209;-57
2022/04/03 09:59:47;;;;;;;;;;;;;;;22.14;31.51;102416.84;7274370;19;153450;-59
2022/04/03 10:02:14;;;;;;;;;;;;;;;22.17;31.54;102417.13;7282532;19;155542;-57
2022/04/03 10:04:42;;;;;;;;;;;;;;;22.22;30.98;102418.22;7270329;19;154140;-57
2022/04/03 10:07:12;;;;;;;;;;;;;;;22.26;31.24;102419.38;7273922;19;151979;-56
2022/04/03 10:09:44;;;;;;;;;;;;;;;22.29;30.95;102411.19;7272195;19;152010;-56
2022/04/03 10:12:13;;;;;;;;;;;;;;;22.32;31.33;102410.63;7275148;19;153963;-56
2022/04/03 10:14:47;;;;;;;;;;;;;;;22.37;31.05;102404.13;7270583;19;153801;-57
2022/04/03 10:17:13;;;;;;;;;;;;;;;22.40;31.40;102401.59;7282455;19;151805;-56
2022/04/03 10:19:40;;;;;;;;;;;;;;;22.44;30.76;102396.25;7280911;19;153089;-56
2022/04/03 10:22:12;;;;;;;;;;;;;;;22.47;30.99;102398.47;7281269;19;153363;-56
2022/04/03 10:24:41;;;;;;;;;;;;;;;22.44;30.63;102399.88;7288871;19;152524;-56
2022/04/03 10:27:22;;;;;;;;;;;;;;;22.42;30.61;102387.22;7279982;19;152890;-57
2022/04/03 10:29:49;;;;;;;;;;;;;;;22.39;31.09;102399.06;7277791;19;152343;-56
2022/04/03 10:32:42;;;;;;;;;;;;;;;22.42;30.54;102393.72;7281093;19;152577;-56
2022/04/03 10:35:10;;;;;;;;;;;;;;;22.39;30.79;102394.28;7279118;19;153302;-56
2022/04/03 10:37:41;;;;;;;;;;;;;;;22.34;30.42;102385.84;7280897;19;151935;-57
2022/04/03 10:40:20;;;;;;;;;;;;;;;22.33;30.32;102388.94;7280839;19;152087;-56
2022/04/03 10:42:58;;;;;;;;;;;;;;;22.38;30.33;102386.97;7279501;19;154028;-56
2022/04/03 10:45:32;;;;;;;;;;;;;;;22.38;30.28;102383.28;7278660;19;152339;-57
2022/04/03 10:48:18;;;;;;;;;;;;;;;22.39;29.96;102380.22;7285616;19;154342;-57
2022/04/03 10:51:04;;;;;;;;;;;;;;;22.32;30.75;102379.66;7279186;19;152495;-56
2022/04/03 10:53:32;;;;;;;;;;;;;;;22.35;30.34;102370.63;7277325;19;152635;-57
2022/04/03 10:56:02;;;;;;;;;;;;;;;22.35;30.00;102362.16;7277044;19;153376;-58
2022/04/03 10:58:39;;;;;;;;;;;;;;;22.37;30.43;102356.25;7280236;19;152013;-59
2022/04/03 11:01:08;;;;;;;;;;;;;;;22.37;29.95;102361.88;7280882;19;153105;-59
2022/04/03 11:03:36;;;;;;;;;;;;;;;22.37;30.12;102356.25;7279415;19;154109;-57
2022/04/03 11:06:18;;;;;;;;;;;;;;;22.37;30.11;102348.66;7275497;19;151871;-57
2022/04/03 11:08:53;;;;;;;;;;;;;;;22.35;30.35;102347.28;7279014;19;154521;-57
2022/04/03 11:11:30;;;;;;;;;;;;;;;22.34;30.18;102337.97;7283000;19;152503;-57
2022/04/03 11:13:57;;;;;;;;;;;;;;;22.35;30.24;102345.28;7274831;19;153137;-57
2022/04/03 11:16:26;;;;;;;;;;;;;;;22.37;30.47;102340.22;7279757;19;153718;-56
2022/04/03 11:18:53;;;;;;;;;;;;;;;22.40;30.54;102328.34;7277351;19;153177;-57
2022/04/03 11:21:23;;;;;;;;;;;;;;;22.43;30.42;102326.97;7280684;19;151928;-56
2022/04/03 11:23:55;;;;;;;;;;;;;;;22.47;30.49;102322.44;7277239;19;153239;-56
2022/04/03 11:26:23;;;;;;;;;;;;;;;22.53;30.39;102318.47;7279908;19;152184;-57
2022/04/03 11:28:58;;;;;;;;;;;;;;;22.58;30.40;102319.25;7278866;19;153458;-56
2022/04/03 11:31:25;;;;;;;;;;;;;;;22.59;30.28;102318.13;7284294;19;153460;-58
2022/04/03 11:33:52;;;;;;;;;;;;;;;22.62;30.35;102326.00;7279341;19;154377;-56
2022/04/03 11:36:23;;;;;;;;;;;;;;;22.53;30.60;102310.84;7277940;19;154002;-56
2022/04/03 11:38:50;;;;;;;;;;;;;;;22.50;30.20;102314.25;7280081;19;152046;-56
2022/04/03 11:41:18;;;;;;;;;;;;;;;22.46;30.20;102309.47;7278351;19;152838;-57
2022/04/03 11:43:55;;;;;;;;;;;;;;;22.43;30.29;102310.91;7278430;19;154195;-57
2022/04/03 11:46:22;;;;;;;;;;;;;;;22.37;30.18;102309.22;7279194;19;152169;-57
2022/04/03 11:48:49;;;;;;;;;;;;;;;22.33;30.07;102296.00;7278719;19;153536;-57
2022/04/03 11:51:17;;;;;;;;;;;;;;;22.29;30.43;102298.56;7275313;19;152537;-56
2022/04/03 11:53:45;;;;;;;;;;;;;;;22.24;30.48;102298.59;7286099;19;152113;-56
2022/04/03 11:56:13;;;;;;;;;;;;;;;22.20;30.00;102297.47;7277706;19;153908;-56
2022/04/03 11:58:44;;;;;;;;;;;;;;;22.16;29.86;102297.22;7276962;19;152326;-57
2022/04/03 12:01:11;;;;;;;;;;;;;;;22.12;29.58;102295.25;7278302;19;153595;-57
2022/04/03 12:03:38;;;;;;;;;;;;;;;22.07;29.95;102298.94;7278141;19;153142;-57
2022/04/03 12:06:18;;;;;;;;;;;;;;;22.04;29.56;102293.00;7275973;19;152571;-56
2022/04/03 12:08:47;;;;;;;;;;;;;;;22.01;29.56;102299.22;7273088;19;153105;-56
2022/04/03 12:11:32;;;;;;;;;;;;;;;22.01;30.12;102299.22;7275185;19;153607;-57
2022/04/03 12:14:00;;;;;;;;;;;;;;;21.99;29.92;102296.69;7274912;19;152865;-57
2022/04/03 12:16:28;;;;;;;;;;;;;;;21.97;29.62;102298.09;7285377;19;153616;-56
2022/04/03 12:19:00;;;;;;;;;;;;;;;21.94;29.64;102284.63;7278549;19;151742;-57
2022/04/03 12:21:37;;;;;;;;;;;;;;;21.97;29.78;102287.69;7277978;19;153910;-56
2022/04/03 12:24:05;;;;;;;;;;;;;;;21.94;30.04;102301.50;7277399;19;153742;-56
2022/04/03 12:26:38;;;;;;;;;;;;;;;21.94;29.79;102295.88;7275494;19;152425;-57
2022/04/03 12:29:05;;;;;;;;;;;;;;;21.94;29.88;102298.69;7277044;19;154106;-56
2022/04/03 12:31:34;;;;;;;;;;;;;;;21.89;30.05;102293.88;7275380;19;153357;-56
2022/04/03 12:34:07;;;;;;;;;;;;;;;21.85;30.08;102280.66;7277934;19;152135;-56